Time;durP1;ratioP1;P1;durP2;ratioP2;P2;SDS_P1;SDS_P2;PMS_P1;PMS_P2;Temp;Humidity;BMP_temperature;BMP_pressure;BME280_temperature;BME280_humidity;BME280_pressure;Samples;Min_cycle;Max_cycle;Signal;HPM_P1;HPM_P2
2023/07/09 13:33:33;;;;;;;5.05;4.85;;;;;;;39.71;24.76;101803.50;5119332;27;20169;-73
2023/07/09 13:35:58;;;;;;;5.20;5.00;;;;;;;39.60;23.77;101806.00;5131683;28;20067;-73
2023/07/09 13:38:24;;;;;;;5.30;5.00;;;;;;;40.06;23.55;101805.38;5131667;28;20047;-73
2023/07/09 13:40:54;;;;;;;5.00;4.80;;;;;;;40.04;20.99;101799.19;5131656;28;20080;-73
2023/07/09 13:43:28;;;;;;;5.30;5.00;;;;;;;39.74;22.72;101803.13;5131427;28;20019;-72
2023/07/09 13:45:56;;;;;;;5.43;5.13;;;;;;;39.27;22.18;101799.22;5131484;28;20035;-73
2023/07/09 13:48:21;;;;;;;5.05;4.85;;;;;;;39.13;23.33;101800.16;5131514;28;20412;-72
2023/07/09 13:50:49;;;;;;;5.00;4.80;;;;;;;38.56;22.84;101805.59;5131490;28;20039;-73
2023/07/09 13:53:18;;;;;;;4.93;4.72;;;;;;;38.21;23.71;101797.16;5112929;28;20027;-73
2023/07/09 13:55:44;;;;;;;4.70;4.50;;;;;;;37.94;23.81;101805.09;5131355;28;20031;-72
2023/07/09 13:58:11;;;;;;;4.95;4.75;;;;;;;37.38;24.91;101800.09;5131199;28;20034;-73
2023/07/09 14:00:37;;;;;;;5.18;4.97;;;;;;;37.11;23.17;101793.34;5131283;28;20046;-74
2023/07/09 14:03:03;;;;;;;5.10;4.90;;;;;;;36.84;26.13;101790.19;5112975;28;20019;-73
2023/07/09 14:05:28;;;;;;;5.20;5.00;;;;;;;37.52;24.13;101793.78;5131213;28;20023;-72
2023/07/09 14:07:53;;;;;;;5.40;5.10;;;;;;;37.51;23.79;101785.72;5131145;28;20023;-73
2023/07/09 14:10:19;;;;;;;5.32;5.05;;;;;;;37.99;22.65;101768.88;5131549;28;20148;-73
2023/07/09 14:12:46;;;;;;;5.15;4.95;;;;;;;37.42;24.09;101764.97;5130907;28;20118;-72
2023/07/09 14:15:20;;;;;;;5.30;5.10;;;;;;;37.62;24.31;101760.63;5131014;28;20023;-72
2023/07/09 14:17:46;;;;;;;5.20;5.00;;;;;;;37.77;25.19;101754.28;5130857;28;20034;-73
2023/07/09 14:20:14;;;;;;;5.15;4.95;;;;;;;37.61;23.27;101755.31;5130578;28;20382;-72
2023/07/09 14:22:42;;;;;;;5.18;4.97;;;;;;;38.26;23.78;101750.00;5112153;28;20027;-73
2023/07/09 14:25:15;;;;;;;5.20;5.00;;;;;;;37.76;23.28;101744.34;5130963;28;20020;-72
2023/07/09 14:27:41;;;;;;;5.43;5.13;;;;;;;37.63;23.50;101748.59;5131041;28;20019;-73
2023/07/09 14:30:06;;;;;;;5.47;5.07;;;;;;;37.03;24.12;101745.00;5131177;28;20553;-72
2023/07/09 14:32:38;;;;;;;5.00;4.80;;;;;;;37.00;24.75;101743.50;5130396;28;20080;-72
2023/07/09 14:35:24;;;;;;;5.05;4.85;;;;;;;37.54;23.44;101739.66;5130760;28;20385;-73
2023/07/09 14:37:53;;;;;;;5.38;5.07;;;;;;;37.16;24.43;101745.19;5130414;28;20130;-73
2023/07/09 14:40:20;;;;;;;5.47;5.18;;;;;;;36.76;24.14;101747.28;5130967;28;20023;-73
2023/07/09 14:42:46;;;;;;;5.07;4.88;;;;;;;36.48;24.19;101741.56;5129085;28;20030;-73
2023/07/09 14:45:24;;;;;;;5.78;5.50;;;;;;;36.41;24.94;101737.84;5116329;28;20023;-72
2023/07/09 14:47:53;;;;;;;4.95;4.75;;;;;;;36.40;24.10;101737.00;5116499;28;20024;-73
2023/07/09 14:50:19;;;;;;;5.07;4.88;;;;;;;36.16;25.23;101733.38;5116480;28;20095;-73
2023/07/09 14:52:46;;;;;;;4.93;4.72;;;;;;;36.12;25.60;101733.91;5116320;28;20027;-73
2023/07/09 14:55:19;;;;;;;5.88;5.57;;;;;;;36.31;23.88;101727.13;5116821;28;20031;-72
2023/07/09 14:57:45;;;;;;;5.00;4.80;;;;;;;36.72;26.45;101733.16;5116593;28;20053;-73
2023/07/09 15:00:21;;;;;;;5.20;5.00;;;;;;;36.61;24.81;101727.25;5116235;28;20031;-73
2023/07/09 15:02:49;;;;;;;5.60;5.20;;;;;;;36.73;23.38;101721.13;5116259;28;20015;-74
2023/07/09 15:05:24;;;;;;;5.53;5.22;;;;;;;37.59;24.69;101721.78;5116297;28;20106;-73
2023/07/09 15:07:49;;;;;;;5.10;4.90;;;;;;;37.66;23.46;101719.97;5116218;28;20474;-72
2023/07/09 15:10:23;;;;;;;5.00;4.80;;;;;;;37.51;24.24;101722.72;5116121;28;20032;-74
2023/07/09 15:12:48;;;;;;;5.20;5.00;;;;;;;37.76;23.49;101712.34;5097669;28;20030;-73
2023/07/09 15:15:22;;;;;;;5.03;4.82;;;;;;;38.14;22.05;101703.03;5097929;28;20023;-73
2023/07/09 15:17:48;;;;;;;5.05;4.85;;;;;;;37.93;23.07;101704.72;5115915;28;20024;-73
2023/07/09 15:20:28;;;;;;;5.60;5.30;;;;;;;37.74;23.51;101695.19;5115889;28;20031;-74
2023/07/09 15:22:56;;;;;;;5.10;4.90;;;;;;;37.93;22.28;101680.06;5116001;28;20028;-73
2023/07/09 15:25:26;;;;;;;5.10;4.90;;;;;;;37.49;23.09;101673.63;5115748;28;20084;-72
2023/07/09 15:27:52;;;;;;;5.20;5.00;;;;;;;36.96;22.85;101681.97;5116031;28;20019;-73
2023/07/09 15:30:24;;;;;;;5.20;5.00;;;;;;;36.88;24.06;101668.38;5116199;28;20080;-74
2023/07/09 15:32:50;;;;;;;5.55;5.25;;;;;;;36.51;23.96;101664.63;5115460;28;20027;-74
2023/07/09 15:35:18;;;;;;;4.97;4.78;;;;;;;36.35;24.99;101658.28;5115750;28;20072;-74
2023/07/09 15:37:44;;;;;;;5.00;4.80;;;;;;;36.36;26.22;101659.09;5115631;28;20031;-74
2023/07/09 15:40:21;;;;;;;4.90;4.70;;;;;;;35.94;26.73;101664.03;5097425;28;20023;-74
2023/07/09 15:42:48;;;;;;;4.90;4.70;;;;;;;35.65;26.21;101660.09;5115535;28;20028;-75
2023/07/09 15:45:18;;;;;;;4.90;4.70;;;;;;;35.61;26.48;101650.56;5115795;28;20501;-75
2023/07/09 15:47:45;;;;;;;4.78;4.57;;;;;;;35.07;26.53;101645.81;5115651;28;20046;-73
2023/07/09 15:50:25;;;;;;;4.80;4.60;;;;;;;35.02;27.19;101650.97;5096946;28;20114;-73
2023/07/09 15:52:51;;;;;;;4.78;4.57;;;;;;;34.85;27.11;101644.69;5115618;28;20034;-73
2023/07/09 15:55:19;;;;;;;4.93;4.72;;;;;;;34.68;28.25;101641.97;5114677;28;20053;-72
2023/07/09 15:57:46;;;;;;;4.72;4.53;;;;;;;34.56;27.93;101637.88;5097296;28;20114;-72
2023/07/09 16:00:25;;;;;;;4.70;4.50;;;;;;;34.24;29.00;101636.88;5115241;28;20019;-73
2023/07/09 16:02:52;;;;;;;5.10;4.90;;;;;;;34.17;29.22;101627.69;5115413;28;20458;-73
2023/07/09 16:05:19;;;;;;;4.90;4.70;;;;;;;34.10;29.47;101618.50;5115710;28;20084;-73
2023/07/09 16:07:44;;;;;;;4.85;4.65;;;;;;;34.22;29.64;101613.53;5114935;28;20111;-73
2023/07/09 16:10:09;;;;;;;5.00;4.80;;;;;;;34.01;29.38;101606.72;5096611;28;20107;-73
2023/07/09 16:12:35;;;;;;;4.90;4.70;;;;;;;34.01;30.00;101602.13;5114727;28;20024;-72
2023/07/09 16:15:00;;;;;;;4.90;4.70;;;;;;;33.81;29.54;101598.88;5114895;28;20084;-74
2023/07/09 16:17:26;;;;;;;4.90;4.70;;;;;;;33.71;30.56;101595.44;5114898;28;20493;-73
2023/07/09 16:19:51;;;;;;;4.90;4.70;;;;;;;33.48;30.82;101593.34;5114713;28;20036;-73
2023/07/09 16:22:19;;;;;;;6.60;6.30;;;;;;;33.62;30.72;101602.72;5114646;28;20024;-73
2023/07/09 16:24:45;;;;;;;5.00;4.80;;;;;;;33.69;31.20;101601.06;5114971;28;20035;-73
2023/07/09 16:27:14;;;;;;;4.90;4.70;;;;;;;33.56;31.16;101608.84;5114654;28;20019;-74
2023/07/09 16:29:40;;;;;;;5.10;4.90;;;;;;;33.40;30.10;101603.38;5114624;28;20023;-72
2023/07/09 16:32:06;;;;;;;5.30;5.00;;;;;;;32.92;31.16;101614.72;5114535;28;20497;-73
2023/07/09 16:34:31;;;;;;;4.97;4.78;;;;;;;32.83;31.90;101629.28;5114596;28;20023;-73
2023/07/09 16:36:58;;;;;;;4.82;4.63;;;;;;;32.64;33.22;101631.16;5114578;28;20065;-72
2023/07/09 16:39:34;;;;;;;5.30;5.10;;;;;;;32.44;31.76;101635.97;5114799;28;20031;-72
2023/07/09 16:41:59;;;;;;;5.10;4.90;;;;;;;32.33;32.05;101631.63;5114782;28;20098;-72
2023/07/09 16:44:25;;;;;;;5.20;5.00;;;;;;;32.13;33.54;101636.34;5114353;28;20050;-73
2023/07/09 16:46:52;;;;;;;5.18;4.97;;;;;;;32.03;34.08;101632.84;5114523;28;20098;-73
2023/07/09 16:49:24;;;;;;;5.00;4.80;;;;;;;31.90;34.80;101632.38;5114382;28;20418;-73
2023/07/09 16:51:49;;;;;;;4.90;4.70;;;;;;;31.80;34.88;101640.59;5114409;28;20024;-72
2023/07/09 16:54:15;;;;;;;5.10;4.90;;;;;;;31.76;35.84;101647.34;5114218;28;20030;-72
2023/07/09 16:56:41;;;;;;;5.50;5.20;;;;;;;31.72;36.25;101652.22;5114349;28;20019;-72
2023/07/09 16:59:10;;;;;;;5.30;5.10;;;;;;;31.43;36.38;101663.22;5114415;28;20039;-73
2023/07/09 17:01:35;;;;;;;5.30;5.10;;;;;;;31.30;36.45;101660.88;5114258;28;20023;-73
2023/07/09 17:04:22;;;;;;;5.20;5.00;;;;;;;31.18;38.38;101665.63;5113993;28;20032;-73
2023/07/09 17:06:48;;;;;;;5.78;5.47;;;;;;;31.07;38.24;101663.09;5113720;28;20076;-73
2023/07/09 17:09:13;;;;;;;5.10;4.90;;;;;;;30.94;39.40;101661.53;5114064;28;20027;-73
2023/07/09 17:11:38;;;;;;;5.50;5.20;;;;;;;30.69;37.56;101662.16;5114152;28;20050;-74
2023/07/09 17:14:04;;;;;;;5.18;4.97;;;;;;;30.60;40.18;101659.31;5113979;28;20089;-73
2023/07/09 17:16:30;;;;;;;5.45;5.15;;;;;;;30.47;39.07;101653.34;5114114;28;20412;-73
2023/07/09 17:18:55;;;;;;;5.65;5.35;;;;;;;30.38;40.68;101656.91;5114114;28;20084;-72
2023/07/09 17:21:20;;;;;;;5.72;5.43;;;;;;;30.29;40.27;101656.78;5113858;28;20023;-72
2023/07/09 17:23:46;;;;;;;5.15;4.95;;;;;;;30.20;40.30;101651.38;5113776;28;20024;-72
2023/07/09 17:26:11;;;;;;;5.60;5.30;;;;;;;30.15;41.12;101643.66;5113964;28;20100;-72
2023/07/09 17:28:36;;;;;;;5.65;5.35;;;;;;;30.07;40.15;101646.22;5113822;28;20019;-72
2023/07/09 17:31:02;;;;;;;5.03;4.82;;;;;;;29.96;39.35;101644.50;5114442;28;20016;-73
2023/07/09 17:33:29;;;;;;;5.80;5.50;;;;;;;29.91;39.83;101649.50;5113428;28;20063;-73
2023/07/09 17:35:55;;;;;;;5.60;5.30;;;;;;;29.75;40.66;101656.25;5113777;28;20412;-73
2023/07/09 17:38:37;;;;;;;5.60;5.30;;;;;;;29.69;41.47;101647.88;5113661;28;20057;-72
2023/07/09 17:41:03;;;;;;;5.68;5.38;;;;;;;29.57;43.31;101650.66;5113873;28;20378;-72
2023/07/09 17:43:28;;;;;;;5.50;5.20;;;;;;;29.50;41.47;101648.66;5113174;28;20024;-73
2023/07/09 17:45:54;;;;;;;5.10;4.90;;;;;;;29.31;42.20;101651.16;5113323;28;20024;-73
2023/07/09 17:48:32;;;;;;;5.20;5.00;;;;;;;29.22;42.47;101646.53;5095162;28;20449;-73
2023/07/09 17:50:58;;;;;;;5.50;5.20;;;;;;;29.08;42.50;101649.59;5113300;28;20020;-73
2023/07/09 17:53:26;;;;;;;5.40;5.15;;;;;;;29.04;42.42;101648.16;5113415;28;20027;-72
2023/07/09 17:55:52;;;;;;;5.50;5.20;;;;;;;28.94;42.36;101645.41;5113331;28;20068;-73
2023/07/09 17:58:39;;;;;;;5.50;5.20;;;;;;;28.85;42.57;101644.38;5113289;28;20420;-72
2023/07/09 18:01:05;;;;;;;5.50;5.20;;;;;;;28.71;43.71;101639.31;5113440;28;20027;-72
2023/07/09 18:03:31;;;;;;;5.60;5.30;;;;;;;28.67;44.45;101637.88;5113221;28;20065;-73
2023/07/09 18:05:58;;;;;;;5.28;5.03;;;;;;;28.50;43.17;101629.34;5113347;28;20024;-73
2023/07/09 18:08:23;;;;;;;5.63;5.32;;;;;;;28.43;42.67;101633.53;5113553;28;20062;-72
2023/07/09 18:10:50;;;;;;;5.60;5.30;;;;;;;28.34;43.11;101637.03;5094920;28;20136;-73
2023/07/09 18:13:19;;;;;;;5.45;5.15;;;;;;;28.28;43.01;101641.97;5113022;28;20023;-72
2023/07/09 18:15:45;;;;;;;5.68;5.38;;;;;;;28.20;43.49;101644.47;5113407;28;20027;-72
2023/07/09 18:18:12;;;;;;;5.70;5.40;;;;;;;28.14;44.25;101650.34;5113294;28;20015;-73
2023/07/09 18:20:38;;;;;;;5.82;5.53;;;;;;;28.06;43.14;101656.41;5117054;28;20069;-72
2023/07/09 18:23:04;;;;;;;5.50;5.20;;;;;;;28.01;44.26;101655.09;5117115;28;20024;-73
2023/07/09 18:25:29;;;;;;;5.78;5.47;;;;;;;27.95;44.69;101664.53;5116857;28;20032;-72
2023/07/09 18:28:04;;;;;;;5.43;5.13;;;;;;;27.88;44.31;101664.16;5117013;28;20032;-72
2023/07/09 18:30:32;;;;;;;5.60;5.30;;;;;;;27.82;45.25;101666.50;5116902;28;20039;-72
2023/07/09 18:32:59;;;;;;;5.65;5.35;;;;;;;27.73;44.81;101665.41;5116566;28;20046;-72
2023/07/09 18:35:36;;;;;;;5.63;5.32;;;;;;;27.62;45.34;101663.63;5117168;28;20031;-72
2023/07/09 18:38:07;;;;;;;5.60;5.30;;;;;;;27.54;46.59;101658.84;5117030;28;20458;-73
2023/07/09 18:40:36;;;;;;;5.80;5.50;;;;;;;27.42;47.66;101651.72;5117128;28;20116;-73
2023/07/09 18:43:08;;;;;;;5.90;5.60;;;;;;;27.31;48.34;101643.63;5116580;28;20497;-73
2023/07/09 18:45:33;;;;;;;5.50;5.20;;;;;;;27.23;48.60;101649.63;5116838;28;20490;-73
2023/07/09 18:47:59;;;;;;;5.50;5.20;;;;;;;27.12;48.00;101656.75;5116508;28;20088;-72
2023/07/09 18:50:30;;;;;;;5.70;5.40;;;;;;;27.05;48.47;101655.47;5116335;28;20055;-73
2023/07/09 18:52:57;;;;;;;5.47;5.18;;;;;;;26.99;48.01;101655.13;5116136;28;20103;-73
2023/07/09 18:55:26;;;;;;;5.70;5.40;;;;;;;26.91;48.73;101643.09;5116355;28;20107;-73
2023/07/09 18:57:52;;;;;;;5.50;5.20;;;;;;;26.85;49.45;101648.16;5116211;28;20028;-73
2023/07/09 19:00:19;;;;;;;4.95;4.75;;;;;;;26.78;50.37;101647.75;5116366;28;20093;-73
2023/07/09 19:02:49;;;;;;;5.38;5.10;;;;;;;26.70;50.61;101653.72;5097678;28;20064;-73
2023/07/09 19:05:18;;;;;;;5.95;5.65;;;;;;;26.62;51.23;101654.28;5116134;28;20015;-72
2023/07/09 19:07:43;;;;;;;5.70;5.40;;;;;;;26.55;50.91;101650.34;5097757;28;20456;-71
2023/07/09 19:10:35;;;;;;;5.40;5.10;;;;;;;26.51;52.78;101650.72;5116132;28;20042;-72
2023/07/09 19:13:07;;;;;;;5.43;5.13;;;;;;;26.44;51.60;101655.72;5112175;28;20039;-72
2023/07/09 19:15:35;;;;;;;5.22;5.03;;;;;;;26.39;51.47;101656.06;5097844;28;20027;-72
2023/07/09 19:18:01;;;;;;;5.28;5.03;;;;;;;26.34;51.62;101662.78;5097700;28;20027;-72
